Archival Weather

Downtown Manhattan/Wall St

New York, Downtown Manhattan/Wall St (KJRB)

Report from: Friday, February 23, 2024 8:56 AM EST
Current time: Wednesday, May 29, 2024 8:11 PM EDT

Current weather – Weather history – Daily summaries
Weather forecast

Present weatherMist
Temperature6.1°C (43.0°F)
Wind chill5.1°C (41.3°F)
Dew point4.4°C (39.9°F)
Winds 3 kts (1.5 m/s, 3.5 mph) South (170°)
Visibility5 mi. (8 km)
Clouds Ceiling: Overcast 5,000 ft. (1,524 m)
Altimeter29.54 in.Hg (1000 mB)
Relative humidity89 %
Density altitude-511 ft. (-156 m)
Sea-level pressure100.0 kPa (1000 mB, 29.54 in.Hg)
Remarks Fully automated report
System requires maintenance
Automated weather observing station with precipitation discriminator
Precipitation sensor not operating
Flight conditions Visual Meteorological Conditions
Raw dataKJRB 231356Z AUTO 17003KT 5SM BR OVC050 06/04 A2954 RMK AO2 SLP004 T00610044 PNO $
An error has occurred. This application may no longer respond until reloaded. Reload 🗙